createdAt,value
2018-11-14T05:00:29.110Z,1.72
2018-11-14T05:01:29.094Z,1.77
2018-11-14T05:02:29.142Z,1.75
2018-11-14T05:03:29.073Z,1.71
2018-11-14T05:04:29.061Z,1.70
2018-11-14T05:05:29.049Z,1.56
2018-11-14T05:06:29.041Z,1.72
2018-11-14T05:07:29.039Z,1.64
2018-11-14T05:08:29.016Z,1.67
2018-11-14T05:09:29.010Z,1.60
2018-11-14T05:10:28.996Z,1.63
2018-11-14T05:11:28.981Z,1.57
2018-11-14T05:12:28.984Z,1.60
2018-11-14T05:13:28.962Z,1.57
2018-11-14T05:14:28.952Z,1.61
2018-11-14T05:15:28.939Z,1.54
2018-11-14T05:16:28.924Z,1.60
2018-11-14T05:17:28.924Z,1.56
2018-11-14T05:18:28.905Z,1.50
2018-11-14T05:19:28.889Z,1.52
2018-11-14T05:20:28.879Z,1.44
2018-11-14T05:21:28.868Z,1.46
2018-11-14T05:22:28.860Z,1.49
2018-11-14T05:23:28.860Z,1.49
2018-11-14T05:24:28.895Z,1.42
2018-11-14T05:25:28.825Z,1.46
2018-11-14T05:26:28.810Z,1.64
2018-11-14T05:27:28.801Z,1.53
2018-11-14T05:28:28.803Z,1.52
2018-11-14T05:29:28.784Z,1.56
2018-11-14T05:30:28.768Z,1.54
2018-11-14T05:31:28.756Z,1.47
2018-11-14T05:32:28.745Z,1.47
2018-11-14T05:33:28.747Z,1.53
2018-11-14T05:34:28.723Z,1.52
2018-11-14T05:35:28.711Z,1.56
2018-11-14T05:36:28.705Z,1.49
2018-11-14T05:37:28.688Z,1.39
2018-11-14T05:38:28.689Z,1.46
2018-11-14T05:39:28.729Z,1.34
2018-11-14T05:40:28.658Z,1.38
2018-11-14T05:41:28.656Z,1.34
2018-11-14T05:42:28.632Z,1.35
2018-11-14T05:43:28.632Z,1.34
2018-11-14T05:44:28.609Z,1.38
2018-11-14T05:45:28.643Z,1.38
2018-11-14T05:46:28.591Z,1.35
2018-11-14T05:47:28.575Z,1.32
2018-11-14T05:48:28.581Z,1.28
2018-11-14T05:49:28.555Z,1.31
2018-11-14T05:50:28.545Z,1.38
2018-11-14T05:51:28.534Z,1.38
2018-11-14T05:52:28.525Z,1.35
2018-11-14T05:53:28.522Z,1.34
2018-11-14T05:54:28.498Z,1.34
2018-11-14T05:55:28.487Z,1.35
2018-11-14T05:56:28.481Z,1.36
2018-11-14T05:57:28.465Z,1.34
2018-11-14T05:58:28.465Z,1.36
2018-11-14T05:59:28.447Z,1.34
2018-11-14T06:00:28.450Z,1.36
2018-11-14T06:01:28.419Z,1.32
2018-11-14T06:02:28.408Z,1.31
2018-11-14T06:03:28.408Z,1.34
2018-11-14T06:04:28.385Z,1.42
2018-11-14T06:05:28.373Z,1.50
2018-11-14T06:06:28.362Z,1.46
2018-11-14T06:07:28.375Z,1.46
2018-11-14T06:08:28.352Z,1.46
2018-11-14T06:09:28.332Z,1.46
2018-11-14T06:10:28.326Z,1.47
2018-11-14T06:11:28.321Z,1.42
2018-11-14T06:12:28.299Z,1.35
2018-11-14T06:13:28.305Z,1.42
2018-11-14T06:14:28.275Z,1.36
2018-11-14T06:15:28.304Z,1.42
2018-11-14T06:16:28.253Z,1.36
2018-11-14T06:17:28.241Z,1.38
2018-11-14T06:18:28.237Z,1.35
2018-11-14T06:19:28.220Z,1.38
2018-11-14T06:20:28.206Z,1.32
2018-11-14T06:21:28.196Z,1.34
2018-11-14T06:22:28.187Z,1.38
2018-11-14T06:23:28.194Z,1.49
2018-11-14T06:24:28.163Z,1.43
2018-11-14T06:25:28.150Z,1.47
2018-11-14T06:26:28.138Z,1.44
2018-11-14T06:27:28.131Z,1.47
2018-11-14T06:28:28.127Z,1.47
2018-11-14T06:29:28.105Z,1.44
2018-11-14T06:30:28.099Z,1.43
2018-11-14T06:31:28.081Z,1.42
2018-11-14T06:32:28.070Z,1.42
2018-11-14T06:33:28.074Z,1.52
2018-11-14T06:34:28.046Z,1.42
2018-11-14T06:35:28.035Z,1.44
2018-11-14T06:36:28.028Z,1.35
2018-11-14T06:37:28.016Z,1.34
2018-11-14T06:38:28.013Z,1.34
2018-11-14T06:39:27.998Z,1.32
2018-11-14T06:40:27.986Z,1.34
2018-11-14T06:41:28.004Z,1.32
2018-11-14T06:42:27.963Z,1.29
2018-11-14T06:43:27.980Z,1.31
2018-11-14T06:44:27.936Z,1.31
2018-11-14T06:45:27.927Z,1.25
2018-11-14T06:46:27.919Z,1.25
2018-11-14T06:47:27.906Z,1.17
2018-11-14T06:48:27.902Z,1.17
2018-11-14T06:49:27.883Z,1.17
2018-11-14T06:50:27.869Z,1.21
2018-11-14T06:51:27.856Z,1.24
2018-11-14T06:52:27.844Z,1.21
2018-11-14T06:53:27.850Z,1.17
2018-11-14T06:54:27.824Z,1.17
2018-11-14T06:55:27.823Z,1.21
2018-11-14T06:56:27.800Z,1.24
2018-11-14T06:57:27.853Z,1.28
2018-11-14T06:58:27.792Z,1.29
2018-11-14T06:59:27.889Z,1.42
2018-11-14T07:00:27.758Z,1.35
2018-11-14T07:01:27.742Z,1.29
2018-11-14T07:02:27.732Z,1.35
2018-11-14T07:03:27.843Z,1.38
2018-11-14T07:04:27.711Z,1.36
2018-11-14T07:05:27.778Z,1.34
2018-11-14T07:06:27.691Z,1.31
2018-11-14T07:07:27.690Z,1.35
2018-11-14T07:08:27.682Z,1.35
2018-11-14T07:09:27.658Z,1.29
2018-11-14T07:10:27.649Z,1.34
2018-11-14T07:11:27.634Z,1.36
2018-11-14T07:12:27.620Z,1.34
2018-11-14T07:13:27.626Z,1.36
2018-11-14T07:14:27.598Z,1.38
2018-11-14T07:15:27.588Z,1.38
2018-11-14T07:16:27.580Z,1.46
2018-11-14T07:17:27.565Z,1.47
2018-11-14T07:18:27.567Z,1.39
2018-11-14T07:19:27.553Z,1.49
2018-11-14T07:20:27.531Z,1.49
2018-11-14T07:21:27.519Z,1.46
2018-11-14T07:22:27.513Z,1.46
2018-11-14T07:23:27.516Z,1.50
2018-11-14T07:24:27.557Z,1.43
2018-11-14T07:25:27.473Z,1.52
2018-11-14T07:26:27.463Z,1.60
2018-11-14T07:27:27.450Z,1.56
2018-11-14T07:28:27.442Z,1.53
2018-11-14T07:29:27.444Z,1.57
2018-11-14T07:30:27.433Z,1.64
2018-11-14T07:31:27.409Z,1.65
2018-11-14T07:32:27.398Z,1.53
2018-11-14T07:33:27.386Z,1.61
2018-11-14T07:34:27.391Z,1.64
2018-11-14T07:35:27.365Z,1.56
2018-11-14T07:36:27.356Z,1.67
2018-11-14T07:37:27.340Z,1.72
2018-11-14T07:38:27.333Z,1.63
2018-11-14T07:39:27.325Z,1.71
2018-11-14T07:40:27.306Z,1.63
2018-11-14T07:41:27.299Z,1.61
2018-11-14T07:42:27.283Z,1.67
2018-11-14T07:43:27.281Z,1.67
2018-11-14T07:44:27.272Z,1.64
2018-11-14T07:45:27.249Z,1.74
2018-11-14T07:46:27.242Z,1.77
2018-11-14T07:47:27.228Z,1.98
2018-11-14T07:48:27.221Z,2.05
2018-11-14T07:49:27.220Z,2.20
2018-11-14T07:50:27.192Z,2.20
2018-11-14T07:51:27.184Z,2.25
2018-11-14T07:52:27.169Z,2.23
2018-11-14T07:53:27.158Z,2.30
2018-11-14T07:54:27.173Z,2.36
2018-11-14T07:55:27.139Z,2.41
2018-11-14T07:56:27.123Z,2.48
2018-11-14T07:57:27.115Z,2.61
2018-11-14T07:58:27.110Z,2.69
2018-11-14T07:59:27.101Z,2.71
2018-11-14T08:00:27.083Z,2.80
2018-11-14T08:01:27.067Z,2.76
2018-11-14T08:02:27.055Z,2.77
2018-11-14T08:03:27.052Z,2.77
2018-11-14T08:04:27.049Z,2.81
2018-11-14T08:05:27.025Z,2.98
2018-11-14T08:06:27.016Z,3.13
2018-11-14T08:07:27.009Z,3.37
2018-11-14T08:08:27.147Z,3.52
2018-11-14T08:09:26.989Z,3.46
2018-11-14T08:10:26.959Z,3.53
2018-11-14T08:11:26.961Z,3.62
2018-11-14T08:12:26.978Z,3.86
2018-11-14T08:13:26.950Z,3.90
2018-11-14T08:14:26.950Z,4.02
2018-11-14T08:15:26.915Z,4.08
2018-11-14T08:16:26.899Z,4.08
2018-11-14T08:17:26.888Z,4.24
2018-11-14T08:18:26.865Z,4.36
2018-11-14T08:19:26.878Z,4.26
2018-11-14T08:20:26.863Z,4.08
2018-11-14T08:21:26.843Z,4.11
2018-11-14T08:22:26.835Z,4.00
2018-11-14T08:23:26.812Z,3.93
2018-11-14T08:24:26.820Z,3.86
2018-11-14T08:25:26.796Z,3.82
2018-11-14T08:26:26.804Z,3.86
2018-11-14T08:27:26.768Z,3.93
2018-11-14T08:28:26.762Z,4.00
2018-11-14T08:29:26.781Z,4.14
2018-11-14T08:30:26.793Z,4.17
2018-11-14T08:31:26.758Z,4.13
2018-11-14T08:32:26.721Z,4.24
2018-11-14T08:33:26.723Z,4.13
2018-11-14T08:34:26.720Z,4.18
2018-11-14T08:35:26.692Z,4.17
2018-11-14T08:36:26.681Z,4.07
2018-11-14T08:37:26.664Z,4.18
2018-11-14T08:38:26.657Z,4.25
2018-11-14T08:39:26.711Z,4.21
2018-11-14T08:40:26.638Z,4.39
2018-11-14T08:41:26.620Z,4.39
2018-11-14T08:42:26.606Z,4.35
2018-11-14T08:43:26.598Z,4.35
2018-11-14T08:44:26.612Z,4.50
2018-11-14T08:45:26.582Z,4.46
2018-11-14T08:46:26.566Z,4.64
2018-11-14T08:47:26.550Z,4.65
2018-11-14T08:48:26.552Z,4.65
2018-11-14T08:49:26.548Z,4.68
2018-11-14T08:50:26.613Z,4.96
2018-11-14T08:51:26.502Z,5.14
2018-11-14T08:52:26.549Z,5.19
2018-11-14T08:53:26.481Z,5.22
2018-11-14T08:54:26.499Z,5.27
2018-11-14T08:55:26.459Z,5.41
2018-11-14T08:56:26.452Z,5.44
2018-11-14T08:57:26.448Z,5.49
2018-11-14T08:58:26.433Z,5.40
2018-11-14T08:59:26.421Z,5.24
2018-11-14T09:00:26.402Z,5.27
2018-11-14T09:01:26.395Z,5.29
2018-11-14T09:02:26.384Z,5.24
2018-11-14T09:03:26.376Z,5.20
2018-11-14T09:04:26.377Z,5.20
2018-11-14T09:05:26.352Z,5.11
2018-11-14T09:06:26.510Z,5.14
2018-11-14T09:07:26.324Z,5.02
2018-11-14T09:08:26.316Z,5.09
2018-11-14T09:09:26.350Z,4.97
2018-11-14T09:10:26.289Z,5.02
2018-11-14T09:11:26.422Z,5.06
2018-11-14T09:12:26.345Z,5.08
2018-11-14T09:13:26.246Z,5.05
2018-11-14T09:14:26.314Z,5.04
2018-11-14T09:15:26.232Z,5.08
2018-11-14T09:16:26.221Z,5.05
2018-11-14T09:17:26.212Z,5.02
2018-11-14T09:18:26.294Z,5.14
2018-11-14T09:19:26.208Z,5.19
2018-11-14T09:20:26.173Z,5.17
2018-11-14T09:21:26.167Z,5.09
2018-11-14T09:22:26.143Z,5.22
2018-11-14T09:23:26.144Z,5.14
2018-11-14T09:24:26.145Z,5.15
2018-11-14T09:25:26.119Z,5.24
2018-11-14T09:26:26.122Z,5.27
2018-11-14T09:27:26.108Z,5.29
2018-11-14T09:28:26.087Z,5.32
2018-11-14T09:29:26.123Z,5.35
2018-11-14T09:30:26.070Z,5.47
2018-11-14T09:31:26.057Z,5.52
2018-11-14T09:32:26.038Z,5.49
2018-11-14T09:33:26.030Z,5.51
2018-11-14T09:34:26.036Z,5.49
2018-11-14T09:35:26.056Z,5.56
2018-11-14T09:36:25.993Z,5.55
2018-11-14T09:37:25.981Z,5.65
2018-11-14T09:38:25.974Z,5.77
2018-11-14T09:39:25.998Z,5.88
2018-11-14T09:40:25.963Z,6.06
2018-11-14T09:41:26.012Z,6.06
2018-11-14T09:42:25.932Z,6.08
2018-11-14T09:43:25.926Z,6.24
2018-11-14T09:44:25.949Z,6.24
2018-11-14T09:45:25.917Z,6.35
2018-11-14T09:46:25.878Z,6.33
2018-11-14T09:47:25.867Z,6.28
2018-11-14T09:48:25.868Z,6.28
2018-11-14T09:49:25.957Z,6.35
2018-11-14T09:50:25.854Z,6.48
2018-11-14T09:51:25.821Z,6.40
2018-11-14T09:52:25.814Z,6.57
2018-11-14T09:53:25.911Z,6.61
2018-11-14T09:54:25.819Z,6.68
2018-11-14T09:55:25.791Z,6.81
2018-11-14T09:56:25.811Z,6.82
2018-11-14T09:57:25.772Z,6.90
2018-11-14T09:58:25.741Z,6.97
2018-11-14T09:59:25.761Z,7.08
2018-11-14T10:00:25.743Z,7.09
2018-11-14T10:01:25.713Z,7.05
2018-11-14T10:02:25.704Z,7.07
2018-11-14T10:03:25.696Z,7.11
2018-11-14T10:04:25.684Z,7.11
2018-11-14T10:05:25.745Z,7.04
2018-11-14T10:06:25.662Z,7.01
2018-11-14T10:07:25.647Z,7.07
2018-11-14T10:08:25.640Z,7.08
2018-11-14T10:09:25.617Z,7.11
2018-11-14T10:10:25.658Z,7.01
2018-11-14T10:11:25.601Z,7.01
2018-11-14T10:12:25.674Z,6.99
2018-11-14T10:13:25.593Z,6.99
2018-11-14T10:14:25.571Z,7.05
2018-11-14T10:15:25.585Z,7.12
2018-11-14T10:16:25.541Z,7.12
2018-11-14T10:17:25.539Z,7.18
2018-11-14T10:18:25.552Z,7.15
2018-11-14T10:19:25.506Z,7.29
2018-11-14T10:20:25.547Z,7.34
2018-11-14T10:21:25.578Z,7.42
2018-11-14T10:22:25.488Z,7.60
2018-11-14T10:23:25.466Z,7.62
2018-11-14T10:24:25.471Z,7.73
2018-11-14T10:25:25.454Z,7.85
2018-11-14T10:26:25.431Z,7.89
2018-11-14T10:27:25.425Z,8.00
2018-11-14T10:28:25.406Z,7.88
2018-11-14T10:29:25.403Z,7.85
2018-11-14T10:30:25.510Z,7.79
2018-11-14T10:31:25.405Z,7.85
2018-11-14T10:32:25.359Z,7.91
2018-11-14T10:33:25.351Z,7.88
2018-11-14T10:34:25.335Z,7.88
2018-11-14T10:35:25.372Z,7.89
2018-11-14T10:36:25.325Z,7.86
2018-11-14T10:37:25.314Z,7.79
2018-11-14T10:38:25.307Z,7.82
2018-11-14T10:39:25.294Z,7.88
2018-11-14T10:40:25.288Z,7.95
2018-11-14T10:41:25.265Z,8.02
2018-11-14T10:42:25.253Z,7.92
2018-11-14T10:43:25.242Z,8.04
2018-11-14T10:44:25.238Z,8.02
2018-11-14T10:45:25.226Z,8.07
2018-11-14T10:46:25.207Z,8.12
2018-11-14T10:47:25.202Z,8.12
2018-11-14T10:48:25.209Z,8.13
2018-11-14T10:49:25.174Z,8.17
2018-11-14T10:50:25.183Z,8.09
2018-11-14T10:51:25.150Z,8.14
2018-11-14T10:52:25.143Z,8.09
2018-11-14T10:53:25.123Z,8.17
2018-11-14T10:54:25.123Z,8.12
2018-11-14T10:55:25.134Z,8.09
2018-11-14T10:56:25.098Z,8.06
2018-11-14T10:57:25.094Z,7.99
2018-11-14T10:58:25.143Z,8.07
2018-11-14T10:59:25.072Z,8.04
2018-11-14T11:00:25.061Z,7.99
2018-11-14T11:01:25.037Z,8.06
2018-11-14T11:02:25.031Z,8.12
2018-11-14T11:03:25.014Z,8.18
2018-11-14T11:04:24.998Z,8.29
2018-11-14T11:05:25.008Z,8.43
2018-11-14T11:06:24.980Z,8.49
2018-11-14T11:07:24.973Z,8.55
2018-11-14T11:08:25.043Z,8.46
2018-11-14T11:09:24.947Z,8.52
2018-11-14T11:10:24.956Z,8.52
2018-11-14T11:11:24.940Z,8.49
2018-11-14T11:12:24.919Z,8.54
2018-11-14T11:13:24.904Z,8.58
2018-11-14T11:14:24.894Z,8.68
2018-11-14T11:15:24.887Z,8.63
2018-11-14T11:16:24.868Z,8.71
2018-11-14T11:17:24.875Z,8.71
2018-11-14T11:18:24.844Z,8.76
2018-11-14T11:19:24.848Z,8.89
2018-11-14T11:20:24.849Z,8.83
2018-11-14T11:21:24.833Z,8.88
2018-11-14T11:22:24.815Z,8.75
2018-11-14T11:23:24.852Z,8.80
2018-11-14T11:24:24.781Z,8.78
2018-11-14T11:25:24.780Z,8.75
2018-11-14T11:26:24.765Z,8.71
2018-11-14T11:27:24.754Z,8.75
2018-11-14T11:28:24.738Z,8.78
2018-11-14T11:29:24.735Z,8.76
2018-11-14T11:30:24.722Z,8.64
2018-11-14T11:31:24.697Z,8.73
2018-11-14T11:32:24.685Z,8.67
2018-11-14T11:33:24.686Z,8.61
2018-11-14T11:34:24.673Z,8.58
2018-11-14T11:35:24.729Z,8.60
2018-11-14T11:36:24.644Z,8.68
2018-11-14T11:37:24.636Z,8.71
2018-11-14T11:38:24.721Z,8.71
2018-11-14T11:39:24.626Z,8.67
2018-11-14T11:40:24.610Z,8.73
2018-11-14T11:41:24.611Z,8.64
2018-11-14T11:42:24.579Z,8.68
2018-11-14T11:43:24.568Z,8.67
2018-11-14T11:44:24.591Z,8.61
2018-11-14T11:45:24.550Z,8.64
2018-11-14T11:46:24.551Z,8.50
2018-11-14T11:47:24.538Z,8.52
2018-11-14T11:48:24.527Z,8.52
2018-11-14T11:49:24.497Z,8.50
2018-11-14T11:50:24.491Z,8.52
2018-11-14T11:51:24.489Z,8.52
2018-11-14T11:52:24.468Z,8.49
2018-11-14T11:53:24.459Z,8.49
2018-11-14T11:54:24.440Z,8.46
2018-11-14T11:55:24.444Z,8.49
2018-11-14T11:56:24.437Z,8.47
2018-11-14T11:57:24.426Z,8.45
2018-11-14T11:58:24.403Z,8.43
2018-11-14T11:59:24.422Z,8.47
2018-11-14T12:00:24.549Z,8.43
2018-11-14T12:01:24.380Z,8.55
2018-11-14T12:02:24.480Z,8.73
2018-11-14T12:03:24.345Z,8.97
2018-11-14T12:04:24.354Z,9.10
2018-11-14T12:05:24.338Z,9.15
2018-11-14T12:06:24.379Z,8.97
2018-11-14T12:07:24.316Z,8.96
2018-11-14T12:08:24.291Z,8.94
2018-11-14T12:09:24.297Z,9.15
2018-11-14T12:10:24.270Z,9.30
2018-11-14T12:11:24.266Z,9.30
2018-11-14T12:12:24.238Z,9.22
2018-11-14T12:13:24.295Z,9.26
2018-11-14T12:14:24.221Z,9.30
2018-11-14T12:15:24.208Z,9.23
2018-11-14T12:16:24.221Z,9.13
2018-11-14T12:17:24.187Z,9.03
2018-11-14T12:18:24.180Z,9.03
2018-11-14T12:19:24.176Z,8.91
2018-11-14T12:20:24.160Z,8.94
2018-11-14T12:21:24.157Z,8.76
2018-11-14T12:22:24.130Z,8.71
2018-11-14T12:23:24.158Z,8.78
2018-11-14T12:24:24.111Z,8.65
2018-11-14T12:25:24.099Z,8.65
2018-11-14T12:26:24.107Z,8.54
2018-11-14T12:27:24.104Z,8.40
2018-11-14T12:28:24.069Z,8.36
2018-11-14T12:29:24.056Z,8.39
2018-11-14T12:30:24.150Z,8.45
2018-11-14T12:31:24.044Z,8.46
2018-11-14T12:32:24.015Z,8.43
2018-11-14T12:33:24.020Z,8.42
2018-11-14T12:34:24.001Z,8.34
2018-11-14T12:35:24.011Z,8.34
2018-11-14T12:36:24.025Z,8.29
2018-11-14T12:37:23.960Z,8.25
2018-11-14T12:38:23.952Z,8.21
2018-11-14T12:39:23.949Z,8.18
2018-11-14T12:40:23.925Z,8.14
2018-11-14T12:41:23.933Z,8.12
2018-11-14T12:42:23.901Z,8.03
2018-11-14T12:43:23.981Z,8.07
2018-11-14T12:44:23.888Z,8.10
2018-11-14T12:45:23.872Z,8.10
2018-11-14T12:46:23.902Z,8.12
2018-11-14T12:47:23.854Z,8.09
2018-11-14T12:48:23.851Z,8.06
2018-11-14T12:49:23.838Z,8.06
2018-11-14T12:50:23.820Z,8.00
2018-11-14T12:51:23.833Z,8.02
2018-11-14T12:52:23.841Z,8.03
2018-11-14T12:53:23.787Z,8.10
2018-11-14T12:54:23.781Z,7.96
2018-11-14T12:55:23.762Z,8.06
2018-11-14T12:56:23.771Z,7.91
2018-11-14T12:57:23.756Z,7.94
2018-11-14T12:58:23.755Z,7.95
2018-11-14T12:59:23.733Z,7.91
2018-11-14T13:00:23.717Z,7.89
2018-11-14T13:01:23.706Z,7.82
2018-11-14T13:02:23.687Z,7.77
2018-11-14T13:03:23.673Z,7.79
2018-11-14T13:04:23.661Z,7.74
2018-11-14T13:05:23.646Z,7.70
2018-11-14T13:06:23.653Z,7.77
2018-11-14T13:07:23.634Z,7.69
2018-11-14T13:08:23.620Z,7.67
2018-11-14T13:09:23.601Z,7.69
2018-11-14T13:10:23.591Z,7.57
2018-11-14T13:11:23.592Z,7.67
2018-11-14T13:12:23.572Z,7.52
2018-11-14T13:13:23.558Z,7.69
2018-11-14T13:14:23.565Z,7.69
2018-11-14T13:15:23.540Z,7.60
2018-11-14T13:16:23.540Z,7.57
2018-11-14T13:17:23.525Z,7.69
2018-11-14T13:18:23.504Z,7.77
2018-11-14T13:19:23.501Z,7.88
2018-11-14T13:20:23.480Z,7.94
2018-11-14T13:21:23.487Z,8.03
2018-11-14T13:22:23.461Z,8.06
2018-11-14T13:23:23.448Z,8.06
2018-11-14T13:24:23.435Z,8.07
2018-11-14T13:25:23.425Z,8.04
2018-11-14T13:26:23.430Z,8.09
2018-11-14T13:27:23.403Z,7.95
2018-11-14T13:28:23.405Z,7.88
2018-11-14T13:29:23.379Z,7.95
2018-11-14T13:30:23.364Z,7.99
2018-11-14T13:31:23.395Z,7.95
2018-11-14T13:32:23.342Z,7.94
2018-11-14T13:33:23.350Z,7.86
